Toyo Maru — JI3710 — position and weather

sailwx.info

Track history (hours):
 
Tides and Currents Weather Stations Pressure Air Temp Water Temp Dewpoint Dewpoint Depression Visibility Wind Speed Wind Dir Waves Ship Positions

Toyo Maru

Last reported at 2014-Jul-23 11:32 UTC. Time now 2014-Jul-24 03:51 UTC.
Position N 34°47' E 139°17'.

Length 125 m; draft 6 m.

Type: Cargo ship. MMSI: 431401953.

Date/timePositionNaut miles runAvg speedWind from/ knotsBaromVisibWave heightAir tempDewpointWater temp
2014-Jul-23 11:32N 34°47' E 139°17'1616.6
2014-Jul-23 10:33N 34°58' E 139°32'1716.9
2014-Jul-23 09:33N 35°11' E 139°45'1413.8
2014-Jul-23 08:34N 35°25' E 139°43'1817.6
2014-Jul-23 07:33N 35°34' E 140°01'4 4.0
2014-Jul-23 06:31N 35°36' E 140°06'0 0.0
2014-Jul-23 05:33N 35°36' E 140°06'1 1.3
2014-Jul-23 04:33N 35°37' E 140°05'0 0.0
2014-Jul-23 03:21N 35°37' E 140°05'0 0.0
2014-Jul-23 02:33N 35°37' E 140°05'0 0.0
2014-Jul-23 01:33N 35°37' E 140°05'0 0.0
2014-Jul-23 00:33N 35°37' E 140°05'0 0.0
2014-Jul-22 23:32N 35°37' E 140°05'1 1.3
2014-Jul-22 22:33N 35°36' E 140°06'0 0.0
2014-Jul-22 21:33N 35°36' E 140°06'0 0.0
2014-Jul-22 20:33N 35°36' E 140°06'1413.9
2014-Jul-22 19:33N 35°29' E 139°52'1313.0
2014-Jul-22 18:33N 35°16' E 139°46'1515.3
2014-Jul-22 17:33N 35°02' E 139°40'24710.2
2014-Jul-21 17:25N 34°04' E 134°48'  
2014-Jul-18 11:33N 34°56' E 139°30'1717.6
2014-Jul-18 10:33N 35°09' E 139°44'1413.6
2014-Jul-18 09:34N 35°23' E 139°42'1817.7
2014-Jul-18 08:33N 35°34' E 139°59'6 5.3
2014-Jul-18 07:26N 35°36' E 140°06'0 0.0
2014-Jul-18 06:29N 35°36' E 140°06'1 1.4
2014-Jul-18 05:33N 35°37' E 140°05'0 0.0
2014-Jul-18 04:29N 35°37' E 140°05'0 0.0
2014-Jul-18 03:23N 35°37' E 140°05'0 0.0
2014-Jul-18 02:23N 35°37' E 140°05'0 0.0
2014-Jul-18 01:29N 35°37' E 140°05'0 0.0
2014-Jul-18 00:29N 35°37' E 140°05'0 0.0
2014-Jul-17 23:29N 35°37' E 140°05'1 1.4
2014-Jul-17 22:33N 35°36' E 140°06'0 0.0
2014-Jul-17 21:33N 35°36' E 140°06'0 0.0
2014-Jul-17 20:33N 35°36' E 140°06'8 8.2
2014-Jul-17 19:33N 35°32' E 139°57'1515.0
2014-Jul-17 18:33N 35°21' E 139°45'1211.8
2014-Jul-17 17:33N 35°09' E 139°46'25410.5
2014-Jul-16 17:23N 34°05' E 134°48'223 4.3
2014-Jul-14 13:29N 34°47' E 139°13'1516.6
2014-Jul-14 12:33N 34°56' E 139°29'1616.4
2014-Jul-14 11:33N 35°07' E 139°43'1312.8
2014-Jul-14 10:33N 35°20' E 139°43'1616.1
2014-Jul-14 09:33N 35°32' E 139°56'9 8.2
2014-Jul-14 08:26N 35°36' E 140°06'0 0.0
2014-Jul-14 07:29N 35°36' E 140°06'0 0.0
2014-Jul-14 06:33N 35°36' E 140°06'1 1.2
2014-Jul-14 05:30N 35°37' E 140°05'0 0.0
2014-Jul-14 04:30N 35°37' E 140°05'0 0.0
2014-Jul-14 03:30N 35°37' E 140°05'0 0.0
2014-Jul-14 02:24N 35°37' E 140°05'0 0.0
2014-Jul-14 01:30N 35°37' E 140°05'0 0.0
2014-Jul-14 00:30N 35°37' E 140°05'0 0.0
2014-Jul-13 23:30N 35°37' E 140°05'1 1.3
2014-Jul-13 22:33N 35°36' E 140°06'0 0.0
2014-Jul-13 21:24N 35°36' E 140°06'0 0.0
2014-Jul-13 20:30N 35°36' E 140°06'0 0.0
2014-Jul-13 19:33N 35°36' E 140°06'0 0.0
2014-Jul-13 18:33N 35°36' E 140°06'0 0.0
2014-Jul-13 17:24N 35°36' E 140°06'0 0.0
2014-Jul-13 16:30N 35°36' E 140°06'0 0.0
2014-Jul-13 15:30N 35°36' E 140°06'0 0.0
2014-Jul-13 14:24N 35°36' E 140°06'0 0.0
2014-Jul-13 13:33N 35°36' E 140°06'0 0.0
2014-Jul-13 12:29N 35°36' E 140°06'  
Track history (hours):
 
Tides and Currents Weather Stations Pressure Air Temp Water Temp Dewpoint Dewpoint Depression Visibility Wind Speed Wind Dir Waves Ship Positions

Toyo Maru

Last reported at 2014-Jul-23 11:32 UTC. Time now 2014-Jul-24 03:51 UTC.
Position N 34°47' E 139°17'.

Length 125 m; draft 6 m.

Type: Cargo ship. MMSI: 431401953.

Date/timePositionNaut miles runAvg speedWind from/ knotsBaromVisibWave heightAir tempDewpointWater temp
2014-Jul-23 11:32N 34°47' E 139°17'1616.6
2014-Jul-23 10:33N 34°58' E 139°32'1716.9
2014-Jul-23 09:33N 35°11' E 139°45'1413.8
2014-Jul-23 08:34N 35°25' E 139°43'1817.6
2014-Jul-23 07:33N 35°34' E 140°01'4 4.0
2014-Jul-23 06:31N 35°36' E 140°06'0 0.0
2014-Jul-23 05:33N 35°36' E 140°06'1 1.3
2014-Jul-23 04:33N 35°37' E 140°05'0 0.0
2014-Jul-23 03:21N 35°37' E 140°05'0 0.0
2014-Jul-23 02:33N 35°37' E 140°05'0 0.0
2014-Jul-23 01:33N 35°37' E 140°05'0 0.0
2014-Jul-23 00:33N 35°37' E 140°05'0 0.0
2014-Jul-22 23:32N 35°37' E 140°05'1 1.3
2014-Jul-22 22:33N 35°36' E 140°06'0 0.0
2014-Jul-22 21:33N 35°36' E 140°06'0 0.0
2014-Jul-22 20:33N 35°36' E 140°06'1413.9
2014-Jul-22 19:33N 35°29' E 139°52'1313.0
2014-Jul-22 18:33N 35°16' E 139°46'1515.3
2014-Jul-22 17:33N 35°02' E 139°40'24710.2
2014-Jul-21 17:25N 34°04' E 134°48'  
2014-Jul-18 11:33N 34°56' E 139°30'1717.6
2014-Jul-18 10:33N 35°09' E 139°44'1413.6
2014-Jul-18 09:34N 35°23' E 139°42'1817.7
2014-Jul-18 08:33N 35°34' E 139°59'6 5.3
2014-Jul-18 07:26N 35°36' E 140°06'0 0.0
2014-Jul-18 06:29N 35°36' E 140°06'1 1.4
2014-Jul-18 05:33N 35°37' E 140°05'0 0.0
2014-Jul-18 04:29N 35°37' E 140°05'0 0.0
2014-Jul-18 03:23N 35°37' E 140°05'0 0.0
2014-Jul-18 02:23N 35°37' E 140°05'0 0.0
2014-Jul-18 01:29N 35°37' E 140°05'0 0.0
2014-Jul-18 00:29N 35°37' E 140°05'0 0.0
2014-Jul-17 23:29N 35°37' E 140°05'1 1.4
2014-Jul-17 22:33N 35°36' E 140°06'0 0.0
2014-Jul-17 21:33N 35°36' E 140°06'0 0.0
2014-Jul-17 20:33N 35°36' E 140°06'8 8.2
2014-Jul-17 19:33N 35°32' E 139°57'1515.0
2014-Jul-17 18:33N 35°21' E 139°45'1211.8
2014-Jul-17 17:33N 35°09' E 139°46'25410.5
2014-Jul-16 17:23N 34°05' E 134°48'223 4.3
2014-Jul-14 13:29N 34°47' E 139°13'1516.6
2014-Jul-14 12:33N 34°56' E 139°29'1616.4
2014-Jul-14 11:33N 35°07' E 139°43'1312.8
2014-Jul-14 10:33N 35°20' E 139°43'1616.1
2014-Jul-14 09:33N 35°32' E 139°56'9 8.2
2014-Jul-14 08:26N 35°36' E 140°06'0 0.0
2014-Jul-14 07:29N 35°36' E 140°06'0 0.0
2014-Jul-14 06:33N 35°36' E 140°06'1 1.2
2014-Jul-14 05:30N 35°37' E 140°05'0 0.0
2014-Jul-14 04:30N 35°37' E 140°05'0 0.0
2014-Jul-14 03:30N 35°37' E 140°05'0 0.0
2014-Jul-14 02:24N 35°37' E 140°05'0 0.0
2014-Jul-14 01:30N 35°37' E 140°05'0 0.0
2014-Jul-14 00:30N 35°37' E 140°05'0 0.0
2014-Jul-13 23:30N 35°37' E 140°05'1 1.3
2014-Jul-13 22:33N 35°36' E 140°06'0 0.0
2014-Jul-13 21:24N 35°36' E 140°06'0 0.0
2014-Jul-13 20:30N 35°36' E 140°06'0 0.0
2014-Jul-13 19:33N 35°36' E 140°06'0 0.0
2014-Jul-13 18:33N 35°36' E 140°06'0 0.0
2014-Jul-13 17:24N 35°36' E 140°06'0 0.0
2014-Jul-13 16:30N 35°36' E 140°06'0 0.0
2014-Jul-13 15:30N 35°36' E 140°06'0 0.0
2014-Jul-13 14:24N 35°36' E 140°06'0 0.0
2014-Jul-13 13:33N 35°36' E 140°06'0 0.0
2014-Jul-13 12:29N 35°36' E 140°06'  

Dump ship's entire track history